Data for 08/12/2008

Time Sea-Level Adjusted Pressure Absolute Pressure Temperature Relative Humidity Dew Point   
(mb) (inHg) (mb) (inHg) (C) (F) (%) (C) (F)
00:05 1019 30.09 849 25.07 13.8 56.9 40 0.7 33.2
00:10 1019 30.09 849 25.07 13.6 56.5 40 0.5 32.9
00:15 1019 30.09 849 25.07 13.5 56.3 41 0.6 33
00:20 1019 30.09 849 25.07 13.4 56 42 0.8 33.4
00:25 1019 30.09 849 25.07 13.1 55.6 43 0.8 33.5
00:30 1019 30.09 849 25.07 12.6 54.6 47 1.5 34.7
00:35 1019 30.09 849 25.07 12.1 53.8 48 1.5 34.7
00:40 1019 30.09 849 25.07 11.8 53.2 49 1.4 34.6
00:45 1020 30.12 849 25.07 11.6 52.9 49 1.5 34.6
00:50 1020 30.12 849 25.07 11.6 52.9 46 0.3 32.6
00:55 1020 30.12 849 25.07 12.2 54 42 -0.3 31.4
01:00 1020 30.12 849 25.07 12.9 55.3 41 0.1 32.2
01:05 1020 30.12 849 25.07 12.8 55 43 0.6 33.1
01:10 1020 30.12 849 25.07 12.7 54.9 42 0.2 32.4
01:15 1020 30.12 849 25.07 12.5 54.5 43 0.2 32.3
01:20 1020 30.12 849 25.07 12.3 54.1 43 -0 32
01:25 1020 30.12 849 25.07 12.1 53.7 46 0.7 33.3
01:30 1020 30.12 849 25.07 11.7 53 47 0.8 33.4
01:35 1020 30.12 849 25.07 11.4 52.5 48 0.8 33.5
01:40 1020 30.12 849 25.07 11.4 52.5 46 0.3 32.5
01:45 1020 30.12 849 25.07 11.6 52.9 45 0.2 32.3
01:50 1020 30.12 849 25.07 11.9 53.4 42 -0.5 31
01:55 1020 30.12 849 25.07 12.5 54.4 39 -1 30.2
02:00 1020 30.12 849 25.07 12.9 55.3 41 0.1 32.2
02:05 1020 30.12 849 25.07 12.9 55.2 38 -0.9 30.3
02:10 1020 30.12 849 25.07 12.8 55 42 0.2 32.3
02:15 1020 30.12 849 25.07 12.4 54.3 43 0.1 32.1
02:20 1020 30.12 849 25.07 12.1 53.8 45 0.5 32.9
02:25 1020 30.12 849 25.07 11.5 52.7 49 1.1 34
02:30 1020 30.12 849 25.07 10.9 51.7 51 1.3 34.4
02:35 1020 30.12 849 25.07 10.9 51.6 48 0.3 32.5
02:40 1019 30.09 849 25.07 11.2 52.2 47 0.3 32.5
02:45 1019 30.09 849 25.07 11.4 52.5 46 0.2 32.4
02:50 1019 30.09 849 25.07 11.7 53 44 -0.2 31.6
02:55 1019 30.09 849 25.07 11.8 53.2 45 0.2 32.4
03:00 1019 30.09 849 25.07 11.6 52.8 45 0.1 32.2
03:05 1019 30.09 849 25.07 11.4 52.4 46 0.2 32.3
03:10 1019 30.09 849 25.07 11.3 52.4 45 -0.1 31.8
03:15 1019 30.09 849 25.07 11.4 52.6 45 -0.1 31.9
03:20 1020 30.12 849 25.07 11.5 52.7 44 -0.1 31.7
03:25 1020 30.12 849 25.07 11.7 53.1 42 -0.6 30.8
03:30 1020 30.12 849 25.07 12 53.6 43 -0.1 31.8
03:35 1020 30.12 849 25.07 11.9 53.3 45 0.3 32.6
03:40 1020 30.12 849 25.07 11.6 52.8 45 0.2 32.3
03:45 1020 30.12 849 25.07 11.5 52.7 47 0.7 33.2
03:50 1020 30.12 849 25.07 11.2 52.1 48 0.6 33
03:55 1020 30.12 849 25.07 11.1 52 48 0.5 32.9
04:00 1020 30.12 849 25.07 11.1 52 48 0.6 33.1
04:05 1020 30.12 849 25.07 10.7 51.3 53 1.7 35
04:10 1020 30.12 849 25.07 9.7 49.4 56 1.3 34.3
04:15 1020 30.12 849 25.07 9.7 49.4 53 0.6 33.1
04:20 1020 30.12 849 25.07 10.1 50.1 51 0.4 32.6
04:25 1020 30.12 849 25.07 10.4 50.7 50 0.4 32.7
04:30 1020 30.12 849 25.07 10.3 50.6 50 0.5 32.9
04:35 1020 30.12 849 25.07 10.4 50.7 48 -0.1 31.9
04:40 1020 30.12 849 25.07 10.8 51.4 48 0.3 32.6
04:45 1020 30.12 849 25.07 10.7 51.2 49 0.3 32.6
04:50 1020 30.12 849 25.07 10.5 51 51 0.8 33.4
04:55 1020 30.12 849 25.07 10.2 50.4 52 0.7 33.3
05:00 1020 30.12 849 25.07 10.3 50.5 51 0.6 33
05:05 1020 30.12 849 25.07 10.2 50.3 51 0.6 33.2
05:10 1020 30.12 849 25.07 10.1 50.1 52 0.7 33.3
05:15 1020 30.12 849 25.07 10.2 50.3 50 0.3 32.5
05:20 1020 30.12 849 25.07 10.2 50.3 50 0.3 32.5
05:25 1020 30.12 849 25.07 10.3 50.6 49 0.1 32.2
05:30 1020 30.12 849 25.07 10.4 50.8 49 0.1 32.2
05:35 1020 30.12 849 25.07 10.5 50.9 50 0.6 33
05:40 1020 30.12 849 25.07 10.2 50.3 49 0 32
05:45 1020 30.12 849 25.07 10.2 50.4 52 0.9 33.6
05:50 1020 30.12 849 25.07 9.7 49.4 52 0.3 32.6
05:55 1020 30.12 849 25.07 9.5 49.1 54 0.6 33.1
06:00 1020 30.12 849 25.07 9.2 48.6 55 0.8 33.5
06:05 1020 30.12 849 25.07 9 48.2 56 0.7 33.3
06:10 1020 30.12 849 25.07 8.9 48.1 54 0.3 32.5
06:15 1020 30.12 849 25.07 9.2 48.6 53 0.1 32.3
06:20 1020 30.12 849 25.07 9.5 49.1 52 0.3 32.5
06:25 1020 30.12 849 25.07 9.7 49.4 51 0.2 32.3
06:30 1020 30.12 849 25.07 9.8 49.7 50 -0.1 31.8
06:35 1020 30.12 849 25.07 10.1 50.1 50 0.2 32.3
06:40 1020 30.12 849 25.07 10.1 50.1 50 0.2 32.3
06:45 1020 30.12 849 25.07 10.1 50.1 53 1 33.9
06:50 1020 30.12 849 25.07 9.8 49.6 54 0.9 33.7
06:55 1020 30.12 849 25.07 9.7 49.4 53 0.7 33.2
07:00 1020 30.12 849 25.07 9.8 49.6 54 1.1 33.9
07:05 1020 30.12 849 25.07 9.6 49.3 57 1.5 34.7
07:10 1020 30.12 849 25.07 9.2 48.6 58 1.3 34.4
07:15 1020 30.12 849 25.07 9.3 48.7 57 1.3 34.4
07:20 1020 30.12 849 25.07 9.5 49 55 0.8 33.4
07:25 1020 30.12 849 25.07 10 50 53 0.9 33.7
07:30 1020 30.12 849 25.07 10.4 50.6 53 1.2 34.1
07:35 1020 30.12 849 25.07 10.7 51.2 53 1.4 34.6
07:40 1020 30.12 849 25.07 10.9 51.5 52 1.3 34.3
07:45 1020 30.12 849 25.07 11.2 52.1 52 1.7 35.1
07:50 1020 30.12 849 25.07 11.4 52.6 51 1.8 35.2
07:55 1020 30.12 850 25.1 11.6 52.8 50 1.5 34.8
08:00 1020 30.12 850 25.1 12 53.6 48 1.5 34.7
08:05 1020 30.12 850 25.1 12.2 53.9 48 1.7 35
08:10 1020 30.12 850 25.1 13 55.4 46 1.8 35.3
08:15 1020 30.12 850 25.1 13.5 56.3 42 1 33.8
08:20 1020 30.12 850 25.1 14.1 57.3 40 0.8 33.4
08:25 1020 30.12 850 25.1 14.4 58 40 1 33.8
08:30 1020 30.12 850 25.1 14.9 58.8 39 1.1 34
08:35 1020 30.12 850 25.1 15.3 59.5 41 2 35.7
08:40 1020 30.12 850 25.1 15.2 59.4 39 1.5 34.7
08:45 1020 30.12 850 25.1 15.6 60.2 37 1.3 34.3
08:50 1020 30.12 850 25.1 15.3 59.5 38 1.3 34.3
08:55 1020 30.12 850 25.1 14.9 58.9 38 0.9 33.7
09:00 1020 30.12 850 25.1 16 60.7 36 0.9 33.6
09:05 1020 30.12 850 25.1 16.5 61.6 36 1.6 34.8
09:10 1020 30.12 850 25.1 15.9 60.5 37 1.2 34.2
09:15 1020 30.12 850 25.1 16.5 61.6 34 0.8 33.4
09:20 1020 30.12 849 25.07 16.3 61.4 35 1.1 34
09:25 1020 30.12 849 25.07 16.8 62.2 33 0.6 33.1
09:30 1020 30.12 849 25.07 16.8 62.3 34 0.9 33.6
09:35 1020 30.12 850 25.1 17.6 63.7 32 0.8 33.4
09:40 1020 30.12 850 25.1 17.9 64.2 33 1.6 34.8
09:45 1020 30.12 849 25.07 17.6 63.6 36 2.4 36.3
09:50 1020 30.12 849 25.07 18.1 64.5 32 1.4 34.5
09:55 1020 30.12 849 25.07 18.1 64.7 32 1.4 34.5
10:00 1020 30.12 849 25.07 18.2 64.8 33 2 35.6
10:05 1020 30.12 849 25.07 18.3 65 33 1.8 35.2
10:10 1020 30.12 849 25.07 18.9 66 33 2.4 36.3
10:15 1020 30.12 849 25.07 18.8 65.9 31 1.7 35
10:20 1020 30.12 849 25.07 19.2 66.6 31 1.9 35.5
10:25 1020 30.12 849 25.07 19.7 67.5 29 1.5 34.7
10:30 1020 30.12 849 25.07 19.8 67.6 30 1.8 35.2
10:35 1020 30.12 849 25.07 20.4 68.8 27 1.1 34
10:40 1020 30.12 849 25.07 20.6 69 28 1.6 34.9
10:45 1020 30.12 849 25.07 20.3 68.6 27 0.7 33.2
10:50 1020 30.12 849 25.07 20.5 68.9 25 0.1 32.2
10:55 1020 30.12 849 25.07 20.8 69.4 25 0.4 32.7
11:00 1020 30.12 849 25.07 20.8 69.4 26 0.5 32.9
11:05 1020 30.12 849 25.07 20.9 69.6 25 0.4 32.7
11:10 1020 30.12 849 25.07 20.9 69.6 27 1.2 34.1
11:15 1020 30.12 849 25.07 20.5 69 27 1.1 33.9
11:20 1020 30.12 849 25.07 20.1 68.2 26 0.3 32.5
11:25 1020 30.12 849 25.07 19.7 67.5 27 0.4 32.7
11:30 1020 30.12 849 25.07 19.4 67 29 1 33.7
11:35 1020 30.12 849 25.07 20.2 68.3 26 0.1 32.3
11:40 1020 30.12 849 25.07 21.1 69.9 25 0.5 32.9
11:45 1020 30.12 849 25.07 21.3 70.3 26 1.4 34.5
11:50 1020 30.12 849 25.07 20.4 68.8 26 0.4 32.7
11:55 1020 30.12 849 25.07 20.9 69.5 26 1 33.9
12:00 1020 30.12 849 25.07 21.4 70.4 26 1.3 34.3
12:05 1020 30.12 849 25.07 22 71.5 25 1.2 34.2
12:10 1020 30.12 849 25.07 21.5 70.6 27 1.6 34.9
12:15 1020 30.12 849 25.07 20.8 69.4 27 1 33.8
12:20 1020 30.12 849 25.07 21.4 70.4 24 0.1 32.1
12:25 1020 30.12 849 25.07 22.2 72 24 0.8 33.5
12:30 1019 30.09 849 25.07 22.5 72.5 25 1.4 34.5
12:35 1019 30.09 849 25.07 21.6 70.8 25 1.1 33.9
12:40 1019 30.09 849 25.07 22.1 71.7 25 1.3 34.3
12:45 1019 30.09 848 25.04 22.8 73.1 25 2.1 35.8
12:50 1019 30.09 848 25.04 22.9 73.3 24 1.3 34.4
12:55 1019 30.09 848 25.04 23.3 74 23 1.1 34
13:00 1019 30.09 848 25.04 23.5 74.3 23 1.4 34.6
13:05 1019 30.09 848 25.04 23 73.5 24 1.5 34.6
13:10 1019 30.09 848 25.04 22.9 73.3 25 2.2 36
13:15 1019 30.09 848 25.04 23.3 74 24 1.7 35
13:20 1019 30.09 848 25.04 23.6 74.5 26 3.1 37.6
13:25 1019 30.09 848 25.04 23 73.4 25 2.1 35.7
13:30 1019 30.09 848 25.04 23.1 73.5 27 3.1 37.5
13:35 1019 30.09 848 25.04 22.8 73 26 2.4 36.3
13:40 1019 30.09 848 25.04 23.3 73.9 25 2.4 36.3
13:45 1019 30.09 848 25.04 24.2 75.6 24 2.3 36.2
13:50 1018 30.06 848 25.04 23.7 74.7 25 2.6 36.7
13:55 1018 30.06 848 25.04 23.7 74.7 24 2.3 36.1
14:00 1018 30.06 848 25.04 23.3 74 26 2.8 37
14:05 1018 30.06 847 25.01 23.8 74.8 27 3.7 38.7
14:10 1018 30.06 847 25.01 23.7 74.6 23 1.7 35
14:15 1018 30.06 847 25.01 24.2 75.5 22 1.6 34.9
14:20 1018 30.06 847 25.01 24.4 76 22 1.8 35.2
14:25 1018 30.06 847 25.01 24.4 75.9 23 2.1 35.8
14:30 1018 30.06 847 25.01 24.7 76.4 22 1.7 35.1
14:35 1018 30.06 847 25.01 24.3 75.7 24 2.4 36.3
14:40 1018 30.06 847 25.01 23.9 75.1 23 1.9 35.4
14:45 1018 30.06 847 25.01 24.7 76.5 22 2 35.6
14:50 1018 30.06 847 25.01 25.2 77.4 22 2 35.6
14:55 1018 30.06 847 25.01 24.9 76.8 22 2.2 35.9
15:00 1018 30.06 847 25.01 25.1 77.2 22 2 35.6
15:05 1018 30.06 847 25.01 25.2 77.4 22 1.9 35.5
15:10 1018 30.06 847 25.01 25.1 77.2 23 2.6 36.6
15:15 1018 30.06 847 25.01 25.2 77.3 22 2.2 35.9
15:20 1018 30.06 847 25.01 25.6 78.2 21 1.9 35.4
15:25 1018 30.06 847 25.01 25.6 78.1 20 1 33.8
15:30 1018 30.06 847 25.01 24.8 76.7 22 1.7 35.1
15:35 1018 30.06 847 25.01 25.2 77.4 22 2.1 35.8
15:40 1018 30.06 847 25.01 25.3 77.5 21 1.7 35
15:45 1018 30.06 847 25.01 25.4 77.7 21 2.1 35.7
15:50 1018 30.06 847 25.01 24.8 76.6 23 2.4 36.3
15:55 1017 30.03 847 25.01 25.7 78.3 21 1.9 35.4
16:00 1017 30.03 847 25.01 26 78.8 20 1.8 35.2
16:05 1017 30.03 847 25.01 25.7 78.2 20 1.3 34.4
16:10 1017 30.03 846 24.98 26.3 79.4 21 2.2 36
16:15 1017 30.03 846 24.98 26.2 79.1 20 1.9 35.5
16:20 1017 30.03 846 24.98 25.5 77.9 20 1.3 34.3
16:25 1017 30.03 846 24.98 25.5 77.9 20 1 33.9
16:30 1017 30.03 846 24.98 26 78.8 19 0.6 33
16:35 1017 30.03 846 24.98 26.6 80 19 1.3 34.3
16:40 1017 30.03 846 24.98 27.1 80.7 18 1.1 34
16:45 1017 30.03 846 24.98 27.5 81.4 17 0.8 33.5
16:50 1017 30.03 846 24.98 27.3 81.1 17 0.6 33.1
16:55 1017 30.03 846 24.98 27.1 80.8 18 0.8 33.5
17:00 1017 30.03 846 24.98 27.2 80.9 19 1.5 34.7
17:05 1017 30.03 846 24.98 25.7 78.2 20 1.2 34.1
17:10 1017 30.03 846 24.98 25.8 78.5 21 1.9 35.4
17:15 1017 30.03 846 24.98 26 78.8 19 1.1 33.9
17:20 1017 30.03 846 24.98 25.5 77.8 21 1.7 35
17:25 1017 30.03 846 24.98 25.4 77.8 21 1.5 34.8
17:30 1017 30.03 846 24.98 25.8 78.4 20 1.4 34.5
17:35 1017 30.03 846 24.98 26.5 79.7 19 1.1 34.1
17:40 1017 30.03 846 24.98 27.2 81 17 0.5 32.9
17:45 1017 30.03 846 24.98 27 80.6 17 0.4 32.7
17:50 1017 30.03 846 24.98 26.4 79.6 17 -0.1 31.8
17:55 1017 30.03 846 24.98 25.4 77.8 19 0.3 32.6
18:00 1017 30.03 846 24.98 25.8 78.5 18 -0.1 31.8
18:05 1017 30.03 846 24.98 26.1 78.9 17 -0.4 31.2
18:10 1017 30.03 846 24.98 26 78.7 18 -0.3 31.5
18:15 1017 30.03 846 24.98 27 80.6 16 -0.3 31.4
18:20 1017 30.03 846 24.98 27 80.5 16 -1.1 30
18:25 1017 30.03 846 24.98 26.9 80.5 16 -0.7 30.7
18:30 1017 30.03 846 24.98 26.8 80.2 16 -1.1 30.1
18:35 1017 30.03 846 24.98 27 80.6 16 -0.7 30.7
18:40 1017 30.03 846 24.98 26.3 79.4 17 -0.1 31.8
18:45 1017 30.03 846 24.98 26.4 79.6 17 -0.4 31.3
18:50 1017 30.03 846 24.98 27 80.6 18 0.9 33.7
18:55 1017 30.03 846 24.98 26.7 80 18 0.4 32.7
19:00 1017 30.03 846 24.98 25.9 78.5 19 0.9 33.7
19:05 1017 30.03 846 24.98 25.3 77.6 19 0 32.1
19:10 1017 30.03 846 24.98 25.5 77.8 18 -0.2 31.6
19:15 1017 30.03 846 24.98 25.3 77.6 18 -0.3 31.4
19:20 1017 30.03 846 24.98 25.1 77.2 19 -0.1 31.8
19:25 1017 30.03 846 24.98 24.9 76.9 19 -0.2 31.6
19:30 1017 30.03 846 24.98 25 76.9 19 0.2 32.3
19:35 1017 30.03 846 24.98 24.9 76.8 20 0.4 32.8
19:40 1017 30.03 846 24.98 24.9 76.7 21 1.3 34.3
19:45 1017 30.03 846 24.98 24.8 76.6 23 2.4 36.4
19:50 1017 30.03 846 24.98 24.6 76.2 24 2.7 36.8
19:55 1017 30.03 846 24.98 24.4 75.8 21 1.2 34.1
20:00 1017 30.03 846 24.98 24.2 75.6 24 2.3 36.2
20:05 1017 30.03 846 24.98 24.1 75.3 25 3.2 37.7
20:10 1017 30.03 846 24.98 23.8 74.9 30 5.4 41.6
20:15 1017 30.03 846 24.98 23.1 73.6 36 7.6 45.6
20:20 1017 30.03 846 24.98 22.5 72.5 34 6 42.9
20:25 1017 30.03 847 25.01 21.9 71.3 35 5.7 42.3
20:30 1017 30.03 847 25.01 21.3 70.4 37 6.3 43.3
20:35 1017 30.03 847 25.01 21 69.8 39 6.6 43.9
20:40 1017 30.03 847 25.01 20.5 68.8 38 5.9 42.7
20:45 1018 30.06 847 25.01 19.9 67.9 39 5.6 42.1
20:50 1018 30.06 847 25.01 20.1 68.1 35 4.3 39.8
20:55 1018 30.06 847 25.01 20.2 68.4 36 4.7 40.5
21:00 1018 30.06 847 25.01 20.1 68.1 38 5.4 41.6
21:05 1018 30.06 847 25.01 19.7 67.4 37 4.7 40.4
21:10 1018 30.06 847 25.01 19.5 67 40 5.5 42
21:15 1018 30.06 847 25.01 19.2 66.5 40 5.2 41.4
21:20 1018 30.06 847 25.01 18.8 65.8 39 4.8 40.7
21:25 1018 30.06 847 25.01 18.5 65.4 41 5.1 41.1
21:30 1018 30.06 847 25.01 18.2 64.8 44 6 42.8
21:35 1018 30.06 847 25.01 17.9 64.3 47 6.6 43.9
21:40 1018 30.06 847 25.01 17.4 63.3 50 6.9 44.4
21:45 1018 30.06 847 25.01 16.3 61.3 52 6.6 43.9
21:50 1018 30.06 848 25.04 16 60.7 50 5.6 42.2
21:55 1018 30.06 848 25.04 16.1 61 48 5.1 41.3
22:00 1018 30.06 848 25.04 16.5 61.6 46 5 41
22:05 1018 30.06 848 25.04 16.5 61.8 47 5.2 41.3
22:10 1019 30.09 848 25.04 16.7 62 42 3.7 38.7
22:15 1019 30.09 848 25.04 16.9 62.4 43 4.3 39.8
22:20 1019 30.09 848 25.04 16.8 62.2 49 6 42.8
22:25 1019 30.09 848 25.04 16.5 61.8 46 5.1 41.2
22:30 1019 30.09 848 25.04 16.1 61.1 51 6.1 42.9
22:35 1019 30.09 848 25.04 15.7 60.3 51 5.8 42.5
22:40 1019 30.09 848 25.04 15.6 60.1 49 4.9 40.9
22:45 1019 30.09 848 25.04 15.3 59.6 50 5 41
22:50 1019 30.09 848 25.04 15.1 59.2 51 5.2 41.4
22:55 1019 30.09 848 25.04 15 59 51 5.1 41.2
23:00 1019 30.09 848 25.04 14.8 58.6 48 3.9 39
23:05 1019 30.09 848 25.04 15.1 59.2 46 3.7 38.7
23:10 1019 30.09 848 25.04 15.2 59.4 45 3.5 38.3
23:15 1019 30.09 848 25.04 15.3 59.5 42 2.7 36.8
23:20 1019 30.09 848 25.04 15.6 60.1 41 2.4 36.2
23:25 1019 30.09 848 25.04 15.7 60.3 40 2.4 36.3
23:30 1019 30.09 848 25.04 15.7 60.2 45 4 39.2
23:35 1019 30.09 848 25.04 15.6 60.1 40 2.2 35.9
23:40 1019 30.09 848 25.04 15.7 60.3 40 2.3 36.1
23:45 1019 30.09 848 25.04 15.7 60.3 40 2.3 36.1
23:50 1019 30.09 848 25.04 15.8 60.5 40 2.4 36.4
23:55 1019 30.09 848 25.04 16 60.7 39 2.2 36
24:00 1019 30.09 848 25.04 15.9 60.5 38 1.7 35.1